createdAt,value
2022-09-03T00:00:10.991Z,2.20
2022-09-03T00:02:49.197Z,2.27
2022-09-03T00:05:23.882Z,2.00
2022-09-03T00:08:09.826Z,1.80
2022-09-03T00:10:59.984Z,2.00
2022-09-03T00:13:35.356Z,1.70
2022-09-03T00:16:10.240Z,1.80
2022-09-03T00:18:43.736Z,1.90
2022-09-03T00:21:23.426Z,1.83
2022-09-03T00:23:50.941Z,2.00
2022-09-03T00:26:26.715Z,1.70
2022-09-03T00:29:08.097Z,1.90
2022-09-03T00:31:38.452Z,1.70
2022-09-03T00:34:23.161Z,1.73
2022-09-03T00:36:50.207Z,1.83
2022-09-03T00:39:20.282Z,2.03
2022-09-03T00:42:06.807Z,2.73
2022-09-03T00:44:50.067Z,2.97
2022-09-03T00:47:23.324Z,3.10
2022-09-03T00:49:58.482Z,3.27
2022-09-03T00:52:33.612Z,2.93
2022-09-03T00:55:08.416Z,2.93
2022-09-03T00:57:53.195Z,2.63
2022-09-03T01:00:20.842Z,2.00
2022-09-03T01:03:12.025Z,2.03
2022-09-03T01:05:52.091Z,1.70
2022-09-03T01:08:44.567Z,1.70
2022-09-03T01:11:19.997Z,1.70
2022-09-03T01:13:52.413Z,1.60
2022-09-03T01:17:03.222Z,1.60
2022-09-03T01:19:32.527Z,2.00
2022-09-03T01:22:29.127Z,1.93
2022-09-03T01:24:59.306Z,1.87
2022-09-03T01:27:27.138Z,1.77
2022-09-03T01:30:00.336Z,1.90
2022-09-03T01:32:45.032Z,1.80
2022-09-03T01:35:33.179Z,1.77
2022-09-03T01:38:23.766Z,2.00
2022-09-03T01:41:35.638Z,2.00
2022-09-03T01:44:17.373Z,1.60
2022-09-03T01:46:48.766Z,1.80
2022-09-03T01:49:28.577Z,1.83
2022-09-03T01:52:29.817Z,1.70
2022-09-03T01:55:06.485Z,1.93
2022-09-03T01:57:49.483Z,1.40
2022-09-03T02:00:20.493Z,1.70
2022-09-03T02:02:51.149Z,1.97
2022-09-03T02:05:26.681Z,1.90
2022-09-03T02:08:01.397Z,2.03
2022-09-03T02:10:31.515Z,1.97
2022-09-03T02:13:08.479Z,2.00
2022-09-03T02:15:37.659Z,1.90
2022-09-03T02:18:10.079Z,1.80
2022-09-03T02:20:37.754Z,1.87
2022-09-03T02:23:04.531Z,2.17
2022-09-03T02:25:37.840Z,1.90
2022-09-03T02:28:07.475Z,1.83
2022-09-03T02:30:43.638Z,1.70
2022-09-03T02:33:10.866Z,2.00
2022-09-03T02:35:37.508Z,2.00
2022-09-03T02:38:21.207Z,2.07
2022-09-03T02:40:47.810Z,1.80
2022-09-03T02:43:50.322Z,1.97
2022-09-03T02:46:27.777Z,2.37
2022-09-03T02:48:55.235Z,2.80
2022-09-03T02:51:21.916Z,2.20
2022-09-03T02:53:48.574Z,2.17
2022-09-03T02:56:18.161Z,2.00
2022-09-03T02:58:44.765Z,2.60
2022-09-03T03:01:11.793Z,2.40
2022-09-03T03:03:46.397Z,2.20
2022-09-03T03:06:14.261Z,2.50
2022-09-03T03:08:41.092Z,2.13
2022-09-03T03:11:07.675Z,2.10
2022-09-03T03:13:34.374Z,2.30
2022-09-03T03:16:03.574Z,2.47
2022-09-03T03:18:30.345Z,2.27
2022-09-03T03:20:56.995Z,2.10
2022-09-03T03:23:23.929Z,2.20
2022-09-03T03:25:50.527Z,2.17
2022-09-03T03:28:20.314Z,2.43
2022-09-03T03:30:48.618Z,2.40
2022-09-03T03:33:15.398Z,1.93
2022-09-03T03:35:42.776Z,1.97
2022-09-03T03:38:09.575Z,2.20
2022-09-03T03:40:38.496Z,2.20
2022-09-03T03:43:05.073Z,2.10
2022-09-03T03:45:32.084Z,2.53
2022-09-03T03:47:59.398Z,2.20
2022-09-03T03:50:26.215Z,2.30
2022-09-03T03:52:52.814Z,2.17
2022-09-03T03:55:19.410Z,1.77
2022-09-03T03:57:46.857Z,1.97
2022-09-03T04:00:14.563Z,1.83
2022-09-03T04:02:41.535Z,2.23
2022-09-03T04:05:08.652Z,2.03
2022-09-03T04:07:36.018Z,2.17
2022-09-03T04:10:02.573Z,2.10
2022-09-03T04:12:29.274Z,1.80
2022-09-03T04:14:55.875Z,1.93
2022-09-03T04:17:25.274Z,2.03
2022-09-03T04:19:52.166Z,2.07
2022-09-03T04:22:19.678Z,2.20
2022-09-03T04:24:46.289Z,1.87
2022-09-03T04:27:12.862Z,1.80
2022-09-03T04:29:39.500Z,2.20
2022-09-03T04:32:24.841Z,1.77
2022-09-03T04:34:51.422Z,2.27
2022-09-03T04:37:19.911Z,2.37
2022-09-03T04:39:46.818Z,2.00
2022-09-03T04:42:13.489Z,2.00
2022-09-03T04:44:41.207Z,2.47
2022-09-03T04:47:07.894Z,2.10
2022-09-03T04:49:34.839Z,2.27
2022-09-03T04:52:02.955Z,2.30
2022-09-03T04:54:29.605Z,2.20
2022-09-03T04:56:56.604Z,2.10
2022-09-03T04:59:23.196Z,2.47
2022-09-03T05:01:49.915Z,2.60
2022-09-03T05:04:16.573Z,2.80
2022-09-03T05:06:43.422Z,2.73
2022-09-03T05:09:10.048Z,2.97
2022-09-03T05:11:36.628Z,2.83
2022-09-03T05:14:03.613Z,3.80
2022-09-03T05:16:30.988Z,3.97
2022-09-03T05:18:59.778Z,4.43
2022-09-03T05:21:26.548Z,5.70
2022-09-03T05:23:53.531Z,6.40
2022-09-03T05:26:22.492Z,10.33
2022-09-03T05:28:54.016Z,13.17
2022-09-03T05:31:22.181Z,13.53
2022-09-03T05:33:51.546Z,13.60
2022-09-03T05:36:20.961Z,12.40
2022-09-03T05:38:47.697Z,7.80
2022-09-03T05:41:15.985Z,6.47
2022-09-03T05:43:43.153Z,4.97
2022-09-03T05:46:12.373Z,5.20
2022-09-03T05:48:40.139Z,4.53
2022-09-03T05:51:09.490Z,4.20
2022-09-03T05:53:40.554Z,3.70
2022-09-03T05:56:18.034Z,3.10
2022-09-03T05:58:49.515Z,3.00
2022-09-03T06:01:18.322Z,2.70
2022-09-03T06:03:46.438Z,2.43
2022-09-03T06:06:17.144Z,2.43
2022-09-03T06:08:45.009Z,2.27
2022-09-03T06:11:11.777Z,2.57
2022-09-03T06:13:38.389Z,2.67
2022-09-03T06:16:06.881Z,2.33
2022-09-03T06:18:33.510Z,2.80
2022-09-03T06:21:02.595Z,2.23
2022-09-03T06:23:29.928Z,2.30
2022-09-03T06:26:13.858Z,2.30
2022-09-03T06:28:43.480Z,2.40
2022-09-03T06:31:12.850Z,2.30
2022-09-03T06:33:40.282Z,2.90
2022-09-03T06:36:09.208Z,2.30
2022-09-03T06:38:37.176Z,2.30
2022-09-03T06:41:08.863Z,2.10
2022-09-03T06:43:37.229Z,2.40
2022-09-03T06:46:14.967Z,2.10
2022-09-03T06:48:42.329Z,2.33
2022-09-03T06:51:14.893Z,2.20
2022-09-03T06:53:45.202Z,2.30
2022-09-03T06:56:14.262Z,2.10
2022-09-03T06:58:45.820Z,2.27
2022-09-03T07:01:19.407Z,2.30
2022-09-03T07:03:47.984Z,2.50
2022-09-03T07:06:16.607Z,2.00
2022-09-03T07:08:43.639Z,2.47
2022-09-03T07:11:15.226Z,2.00
2022-09-03T07:13:44.226Z,2.03
2022-09-03T07:16:33.538Z,2.20
2022-09-03T07:19:01.115Z,1.93
2022-09-03T07:21:29.981Z,2.13
2022-09-03T07:23:57.643Z,2.20
2022-09-03T07:26:25.694Z,2.10
2022-09-03T07:28:54.225Z,2.10
2022-09-03T07:31:26.133Z,1.90
2022-09-03T07:33:56.989Z,2.00
2022-09-03T07:36:25.242Z,2.10
2022-09-03T07:38:55.289Z,1.93
2022-09-03T07:41:27.673Z,2.10
2022-09-03T07:43:55.503Z,1.93
2022-09-03T07:46:24.666Z,2.20
2022-09-03T07:48:56.050Z,2.07
2022-09-03T07:51:28.334Z,1.93
2022-09-03T07:53:57.731Z,2.17
2022-09-03T07:56:25.654Z,2.20
2022-09-03T07:58:52.580Z,2.10
2022-09-03T08:01:21.187Z,1.80
2022-09-03T08:03:53.190Z,2.07
2022-09-03T08:06:22.645Z,2.20
2022-09-03T08:08:49.658Z,1.97
2022-09-03T08:11:18.370Z,2.30
2022-09-03T08:13:48.208Z,2.10
2022-09-03T08:16:18.443Z,1.90
2022-09-03T08:18:47.487Z,2.17
2022-09-03T08:21:16.936Z,2.20
2022-09-03T08:23:45.498Z,2.03
2022-09-03T08:26:13.018Z,2.30
2022-09-03T08:28:40.719Z,1.93
2022-09-03T08:31:07.570Z,2.03
2022-09-03T08:33:37.371Z,2.07
2022-09-03T08:36:12.901Z,2.10
2022-09-03T08:38:40.892Z,2.33
2022-09-03T08:41:11.712Z,2.00
2022-09-03T08:44:17.373Z,2.23
2022-09-03T08:46:51.474Z,2.10
2022-09-03T08:49:57.025Z,2.40
2022-09-03T08:52:28.075Z,2.30
2022-09-03T08:55:13.879Z,2.57
2022-09-03T08:57:53.443Z,2.37
2022-09-03T09:00:22.006Z,2.57
2022-09-03T09:03:16.376Z,2.30
2022-09-03T09:05:55.578Z,2.20
2022-09-03T09:08:43.048Z,2.70
2022-09-03T09:11:31.655Z,2.10
2022-09-03T09:14:01.791Z,2.10
2022-09-03T09:16:37.801Z,2.20
2022-09-03T09:19:13.673Z,2.10
2022-09-03T09:21:46.210Z,1.90
2022-09-03T09:24:35.455Z,2.10
2022-09-03T09:27:04.733Z,2.27
2022-09-03T09:29:38.724Z,2.03
2022-09-03T09:32:09.510Z,2.33
2022-09-03T09:34:38.083Z,2.03
2022-09-03T09:37:10.209Z,2.03
2022-09-03T09:39:37.491Z,2.00
2022-09-03T09:42:11.013Z,1.93
2022-09-03T09:44:42.867Z,2.13
2022-09-03T09:47:17.187Z,1.80
2022-09-03T09:49:58.281Z,2.07
2022-09-03T09:52:28.546Z,2.03
2022-09-03T09:55:09.899Z,1.70
2022-09-03T09:57:38.034Z,1.40
2022-09-03T10:00:08.966Z,1.60
2022-09-03T10:02:59.056Z,1.53
2022-09-03T10:05:26.659Z,1.80
2022-09-03T10:08:04.530Z,1.90
2022-09-03T10:10:37.870Z,1.70
2022-09-03T10:13:13.837Z,2.00
2022-09-03T10:15:44.791Z,1.97
2022-09-03T10:18:18.311Z,1.73
2022-09-03T10:20:58.774Z,1.80
2022-09-03T10:23:30.209Z,1.90
2022-09-03T10:25:57.172Z,1.70
2022-09-03T10:28:30.935Z,1.83
2022-09-03T10:31:07.179Z,1.90
2022-09-03T10:33:49.437Z,2.17
2022-09-03T10:36:20.883Z,1.90
2022-09-03T10:38:53.995Z,1.97
2022-09-03T10:41:26.401Z,1.90
2022-09-03T10:44:26.415Z,2.27
2022-09-03T10:46:59.777Z,2.27
2022-09-03T10:49:45.231Z,2.37
2022-09-03T10:52:25.991Z,1.90
2022-09-03T10:55:03.443Z,2.17
2022-09-03T10:57:42.978Z,2.20
2022-09-03T11:00:13.044Z,2.13
2022-09-03T11:03:30.652Z,2.10
2022-09-03T11:06:03.798Z,2.10
2022-09-03T11:08:44.595Z,1.90
2022-09-03T11:11:26.702Z,2.13
2022-09-03T11:14:03.933Z,2.50
2022-09-03T11:16:38.362Z,2.20
2022-09-03T11:19:07.669Z,2.03
2022-09-03T11:21:36.785Z,2.40
2022-09-03T11:24:26.779Z,2.10
2022-09-03T11:27:17.113Z,2.10
2022-09-03T11:30:22.576Z,2.13
2022-09-03T11:32:55.546Z,2.43
2022-09-03T11:35:39.125Z,2.10
2022-09-03T11:38:21.157Z,2.20
2022-09-03T11:41:01.770Z,2.23
2022-09-03T11:43:30.713Z,2.00
2022-09-03T11:46:14.579Z,2.40
2022-09-03T11:48:50.495Z,1.90
2022-09-03T11:51:30.314Z,2.00
2022-09-03T11:53:58.521Z,2.20
2022-09-03T11:56:25.428Z,2.07
2022-09-03T11:59:16.236Z,2.00
2022-09-03T12:02:24.081Z,2.40
2022-09-03T12:05:00.107Z,2.27
2022-09-03T12:07:45.024Z,2.00
2022-09-03T12:10:32.534Z,2.20
2022-09-03T12:13:19.094Z,2.53
2022-09-03T12:16:19.436Z,2.00
2022-09-03T12:18:49.314Z,1.83
2022-09-03T12:21:17.210Z,2.10
2022-09-03T12:23:45.022Z,2.17
2022-09-03T12:26:19.899Z,2.20
2022-09-03T12:28:55.475Z,2.30
2022-09-03T12:31:35.053Z,2.20
2022-09-03T12:34:16.375Z,2.20
2022-09-03T12:36:54.243Z,2.23
2022-09-03T12:42:19.655Z,2.40
2022-09-03T12:44:46.229Z,2.13
2022-09-03T12:50:07.989Z,2.20
2022-09-03T12:52:45.539Z,2.30
2022-09-03T12:55:33.379Z,2.57
2022-09-03T12:58:18.553Z,2.50
2022-09-03T13:00:58.058Z,2.30
2022-09-03T13:03:29.290Z,2.30
2022-09-03T13:06:02.376Z,2.17
2022-09-03T13:08:34.482Z,2.30
2022-09-03T13:11:06.172Z,2.23
2022-09-03T13:13:40.817Z,2.53
2022-09-03T13:16:19.522Z,2.23
2022-09-03T13:19:04.181Z,2.23
2022-09-03T13:21:40.502Z,2.57
2022-09-03T13:24:14.258Z,2.30
2022-09-03T13:26:50.012Z,2.27
2022-09-03T13:29:28.786Z,2.10
2022-09-03T13:32:06.083Z,2.40
2022-09-03T13:34:39.987Z,2.30
2022-09-03T13:37:28.438Z,2.30
2022-09-03T13:40:00.084Z,2.50
2022-09-03T13:42:36.311Z,2.50
2022-09-03T13:45:11.141Z,2.20
2022-09-03T13:48:04.657Z,2.50
2022-09-03T13:50:49.287Z,2.27
2022-09-03T13:53:32.881Z,2.33
2022-09-03T13:56:06.847Z,2.53
2022-09-03T13:58:52.085Z,2.50
2022-09-03T14:01:23.537Z,2.90
2022-09-03T14:03:55.460Z,2.43
2022-09-03T14:06:41.648Z,2.50
2022-09-03T14:09:34.021Z,2.77
2022-09-03T14:12:35.914Z,2.57
2022-09-03T14:15:10.887Z,2.70
2022-09-03T14:17:46.333Z,2.50
2022-09-03T14:20:28.669Z,2.60
2022-09-03T14:23:24.231Z,2.27
2022-09-03T14:26:03.525Z,2.63
2022-09-03T14:28:57.542Z,2.50
2022-09-03T14:31:45.633Z,2.50
2022-09-03T14:34:31.199Z,2.40
2022-09-03T14:37:30.998Z,2.23
2022-09-03T14:40:26.977Z,2.53
2022-09-03T14:43:29.453Z,2.53
2022-09-03T14:46:06.502Z,2.80
2022-09-03T14:48:48.245Z,2.57
2022-09-03T14:51:21.187Z,2.70
2022-09-03T14:53:59.811Z,2.43
2022-09-03T14:56:40.845Z,2.20
2022-09-03T14:59:26.229Z,3.00
2022-09-03T15:02:13.703Z,2.50
2022-09-03T15:05:14.555Z,5.80
2022-09-03T15:07:47.062Z,2.80
2022-09-03T15:10:32.804Z,2.87
2022-09-03T15:13:06.991Z,2.60
2022-09-03T15:15:48.480Z,2.50
2022-09-03T15:18:26.057Z,2.47
2022-09-03T15:21:31.249Z,2.60
2022-09-03T15:24:00.839Z,2.37
2022-09-03T15:26:39.920Z,2.60
2022-09-03T15:29:37.704Z,2.63
2022-09-03T15:32:17.907Z,2.70
2022-09-03T15:35:07.849Z,2.70
2022-09-03T15:37:53.025Z,2.90
2022-09-03T15:40:27.786Z,2.90
2022-09-03T15:43:05.149Z,3.07
2022-09-03T15:45:39.119Z,2.73
2022-09-03T15:48:32.059Z,2.63
2022-09-03T15:51:10.927Z,2.70
2022-09-03T15:53:54.922Z,2.90
2022-09-03T15:56:32.570Z,2.63
2022-09-03T15:59:21.093Z,2.83
2022-09-03T16:02:15.195Z,3.47
2022-09-03T16:05:16.439Z,2.73
2022-09-03T16:07:49.036Z,2.80
2022-09-03T16:10:25.741Z,2.80
2022-09-03T16:13:23.163Z,2.97
2022-09-03T16:16:09.645Z,2.90
2022-09-03T16:18:49.913Z,2.87
2022-09-03T16:21:53.700Z,2.73
2022-09-03T16:24:24.613Z,2.87
2022-09-03T16:26:54.232Z,2.70
2022-09-03T16:29:27.790Z,3.17
2022-09-03T16:32:17.091Z,3.00
2022-09-03T16:34:49.813Z,3.13
2022-09-03T16:37:29.010Z,2.80
2022-09-03T16:40:05.572Z,3.43
2022-09-03T16:42:50.444Z,3.27
2022-09-03T16:45:34.186Z,2.77
2022-09-03T16:48:35.842Z,2.67
2022-09-03T16:51:14.798Z,2.97
2022-09-03T16:54:07.495Z,3.10
2022-09-03T16:56:53.707Z,3.30
2022-09-03T16:59:57.737Z,3.10
2022-09-03T17:02:49.160Z,3.27
2022-09-03T17:05:27.616Z,3.30
2022-09-03T17:08:31.154Z,3.40
2022-09-03T17:11:22.404Z,3.03
2022-09-03T17:14:26.643Z,3.40
2022-09-03T17:17:11.926Z,3.30
2022-09-03T17:19:59.735Z,3.30
2022-09-03T17:22:55.753Z,3.17
2022-09-03T17:25:31.262Z,3.10
2022-09-03T17:28:25.500Z,3.07
2022-09-03T17:31:10.604Z,3.47
2022-09-03T17:33:49.794Z,3.20
2022-09-03T17:36:18.772Z,3.23
2022-09-03T17:39:03.797Z,3.47
2022-09-03T17:41:45.384Z,3.47
2022-09-03T17:44:30.773Z,3.20
2022-09-03T17:47:28.605Z,3.17
2022-09-03T17:50:18.730Z,3.37
2022-09-03T17:52:48.725Z,3.90
2022-09-03T17:55:24.561Z,3.70
2022-09-03T17:58:10.676Z,3.67
2022-09-03T18:00:52.437Z,3.77
2022-09-03T18:03:30.246Z,4.60
2022-09-03T18:06:03.879Z,4.30
2022-09-03T18:08:42.141Z,4.50
2022-09-03T18:11:15.147Z,3.77
2022-09-03T18:14:00.370Z,4.03
2022-09-03T18:16:29.437Z,3.77
2022-09-03T18:19:03.991Z,3.63
2022-09-03T18:21:55.239Z,3.80
2022-09-03T18:25:16.898Z,3.77
2022-09-03T18:28:06.124Z,6.43
2022-09-03T18:30:52.929Z,7.10
2022-09-03T18:33:42.721Z,7.43
2022-09-03T18:36:29.357Z,6.97
2022-09-03T18:39:42.959Z,5.63
2022-09-03T18:42:54.381Z,4.90
2022-09-03T18:49:06.863Z,4.47
2022-09-03T18:52:18.053Z,4.43
2022-09-03T18:55:13.413Z,4.73
2022-09-03T18:58:21.268Z,4.60
2022-09-03T19:01:18.529Z,4.33
2022-09-03T19:04:08.700Z,4.50
2022-09-03T19:07:06.652Z,4.50
2022-09-03T19:10:01.137Z,4.30
2022-09-03T19:12:59.385Z,4.80
2022-09-03T19:15:48.568Z,4.27
2022-09-03T19:19:13.956Z,4.60
2022-09-03T19:22:06.945Z,4.97
2022-09-03T19:24:52.146Z,4.67
2022-09-03T19:27:59.961Z,4.20
2022-09-03T19:30:53.771Z,4.33
2022-09-03T19:33:45.460Z,4.43
2022-09-03T19:36:30.763Z,4.27
2022-09-03T19:39:28.289Z,4.77
2022-09-03T19:42:16.595Z,4.33
2022-09-03T19:45:23.412Z,4.63
2022-09-03T19:48:14.752Z,4.33
2022-09-03T19:51:03.432Z,4.50
2022-09-03T19:53:48.696Z,3.90
2022-09-03T19:56:42.920Z,4.00
2022-09-03T19:59:32.080Z,4.40
2022-09-03T20:02:17.772Z,4.70
2022-09-03T20:05:20.309Z,4.80
2022-09-03T20:08:09.411Z,4.10
2022-09-03T20:10:36.721Z,4.60
2022-09-03T20:13:06.208Z,4.60
2022-09-03T20:15:41.770Z,4.60
2022-09-03T20:18:21.025Z,4.43
2022-09-03T20:20:50.294Z,4.30
2022-09-03T20:23:34.862Z,4.37
2022-09-03T20:26:10.485Z,4.40
2022-09-03T20:28:46.523Z,4.90
2022-09-03T20:31:13.099Z,4.90
2022-09-03T20:34:16.990Z,5.40
2022-09-03T20:37:09.921Z,5.20
2022-09-03T20:39:55.774Z,5.07
2022-09-03T20:42:31.543Z,6.37
2022-09-03T20:45:06.645Z,5.73
2022-09-03T20:47:36.454Z,6.37
2022-09-03T20:50:18.624Z,6.90
2022-09-03T20:52:53.243Z,6.80
2022-09-03T20:55:29.251Z,6.80
2022-09-03T20:58:10.936Z,6.27
2022-09-03T21:00:57.934Z,6.10
2022-09-03T21:03:50.611Z,6.13
2022-09-03T21:06:28.798Z,6.20
2022-09-03T21:08:58.783Z,5.70
2022-09-03T21:11:36.147Z,5.90
2022-09-03T21:14:21.293Z,6.10
2022-09-03T21:16:56.674Z,5.67
2022-09-03T21:19:44.375Z,5.07
2022-09-03T21:22:38.031Z,5.03
2022-09-03T21:25:33.136Z,5.37
2022-09-03T21:28:03.559Z,4.80
2022-09-03T21:30:31.199Z,4.90
2022-09-03T21:33:06.229Z,4.70
2022-09-03T21:35:39.354Z,5.10
2022-09-03T21:38:16.887Z,5.00
2022-09-03T21:40:50.147Z,4.90
2022-09-03T21:43:38.653Z,4.93
2022-09-03T21:46:15.938Z,5.23
2022-09-03T21:48:49.680Z,5.13
2022-09-03T21:51:36.169Z,5.20
2022-09-03T21:54:09.578Z,5.17
2022-09-03T21:57:03.947Z,5.20
2022-09-03T21:59:31.090Z,5.07
2022-09-03T22:02:19.698Z,5.23
2022-09-03T22:04:46.371Z,5.53
2022-09-03T22:07:28.091Z,5.33
2022-09-03T22:10:06.511Z,5.03
2022-09-03T22:12:42.327Z,4.90
2022-09-03T22:15:13.289Z,5.00
2022-09-03T22:17:56.962Z,5.70
2022-09-03T22:20:25.448Z,5.27
2022-09-03T22:23:01.697Z,5.20
2022-09-03T22:26:00.726Z,5.00
2022-09-03T22:28:42.304Z,4.97
2022-09-03T22:31:23.338Z,4.80
2022-09-03T22:34:02.910Z,5.00
2022-09-03T22:36:53.162Z,4.80
2022-09-03T22:39:39.115Z,5.17
2022-09-03T22:42:17.925Z,5.20
2022-09-03T22:44:59.488Z,5.57
2022-09-03T22:47:37.487Z,5.40
2022-09-03T22:50:20.376Z,4.80
2022-09-03T22:53:16.934Z,5.10
2022-09-03T22:55:58.494Z,5.30
2022-09-03T22:58:30.528Z,4.60
2022-09-03T23:01:05.507Z,5.00
2022-09-03T23:03:42.469Z,5.47
2022-09-03T23:06:33.957Z,5.20
2022-09-03T23:09:10.550Z,4.97
2022-09-03T23:11:45.215Z,4.73
2022-09-03T23:14:41.379Z,5.07
2022-09-03T23:17:14.801Z,4.87
2022-09-03T23:19:47.790Z,4.93
2022-09-03T23:22:20.810Z,5.13
2022-09-03T23:24:57.222Z,5.57
2022-09-03T23:27:31.929Z,5.70
2022-09-03T23:30:00.666Z,5.30
2022-09-03T23:32:33.069Z,4.83
2022-09-03T23:35:07.096Z,5.03
2022-09-03T23:37:54.318Z,5.07
2022-09-03T23:40:23.374Z,4.63
2022-09-03T23:42:59.517Z,5.30
2022-09-03T23:45:39.257Z,5.20
2022-09-03T23:48:24.806Z,5.03
2022-09-03T23:51:01.649Z,4.97
2022-09-03T23:53:37.049Z,4.73
2022-09-03T23:56:08.530Z,4.87
2022-09-03T23:59:00.369Z,5.53
